Time;durP1;ratioP1;P1;durP2;ratioP2;P2;SDS_P1;SDS_P2;PMS_P1;PMS_P2;Temp;Humidity;BMP_temperature;BMP_pressure;BME280_temperature;BME280_humidity;BME280_pressure;Samples;Min_cycle;Max_cycle;Signal;HPM_P1;HPM_P2
2022/07/12 00:01:07;;;;;;;5.03;1.73;;;15.90;63.50;;;16.15;49.63;95408.25;5045486;28;20558;-58
2022/07/12 00:03:35;;;;;;;4.50;2.10;;;15.80;63.90;;;16.11;49.64;95405.06;5045941;28;20615;-61
2022/07/12 00:06:02;;;;;;;1.83;1.73;;;15.80;63.90;;;16.05;49.88;95403.91;5045029;28;20483;-58
2022/07/12 00:08:31;;;;;;;2.40;2.20;;;15.70;64.10;;;16.02;49.88;95403.38;5045308;28;20460;-61
2022/07/12 00:10:59;;;;;;;1.77;1.50;;;15.70;63.90;;;15.97;49.90;95403.88;5045331;28;20499;-60
2022/07/12 00:13:26;;;;;;;2.30;1.50;;;15.70;64.30;;;15.92;50.54;95403.53;5045023;28;20456;-61
2022/07/12 00:15:54;;;;;;;1.90;1.80;;;15.70;64.80;;;15.87;50.19;95405.84;5044709;28;20988;-62
2022/07/12 00:18:21;;;;;;;4.40;1.83;;;15.60;64.40;;;15.85;50.33;95407.78;5045165;28;21007;-61
2022/07/12 00:20:49;;;;;;;3.10;1.50;;;15.50;64.90;;;15.85;50.16;95405.13;5044958;28;20471;-61
2022/07/12 00:23:16;;;;;;;4.13;2.03;;;15.50;64.60;;;15.87;49.71;95400.53;5045200;28;20482;-61
2022/07/12 00:25:45;;;;;;;1.87;1.40;;;15.50;64.40;;;15.90;49.94;95405.50;5044945;28;20479;-59
2022/07/12 00:28:12;;;;;;;1.77;1.50;;;15.60;64.60;;;15.92;50.09;95409.66;5045592;28;20541;-61
2022/07/12 00:30:40;;;;;;;2.20;1.47;;;15.60;64.60;;;15.92;50.03;95399.03;5044841;28;20499;-58
2022/07/12 00:33:08;;;;;;;1.87;1.77;;;15.60;64.60;;;15.93;49.77;95402.53;5044668;28;20452;-58
2022/07/12 00:35:36;;;;;;;9.80;2.53;;;15.60;64.50;;;15.94;49.91;95405.03;5044493;28;20555;-58
2022/07/12 00:38:03;;;;;;;1.40;1.30;;;15.60;64.50;;;15.95;49.79;95404.03;5044810;28;20474;-58
2022/07/12 00:40:30;;;;;;;1.60;1.50;;;15.60;64.30;;;16.00;49.55;95400.06;5044471;28;20483;-58
2022/07/12 00:42:59;;;;;;;1.80;1.70;;;15.60;64.20;;;16.03;49.68;95400.56;5044973;28;20475;-58
2022/07/12 00:45:27;;;;;;;2.43;1.60;;;15.70;64.40;;;16.06;49.73;95405.56;5043930;28;20468;-63
2022/07/12 00:47:54;;;;;;;2.17;1.60;;;15.70;64.30;;;16.07;49.51;95395.78;5043724;28;20468;-58
2022/07/12 00:50:22;;;;;;;1.20;1.10;;;15.70;64.10;;;16.10;49.51;95393.63;5043333;28;20967;-57
2022/07/12 00:52:52;;;;;;;6.23;1.43;;;15.80;64.30;;;16.11;49.26;95392.66;5042578;28;20854;-61
2022/07/12 00:55:20;;;;;;;1.40;1.30;;;15.80;63.90;;;16.16;49.30;95393.97;5044418;28;20970;-59
2022/07/12 00:57:47;;;;;;;2.93;1.50;;;15.80;63.80;;;16.19;49.19;95385.69;5044639;28;20836;-61
2022/07/12 01:00:17;;;;;;;1.40;1.30;;;15.80;63.80;;;16.17;49.52;95390.34;5044750;28;20491;-62
2022/07/12 01:02:46;;;;;;;2.57;1.57;;;15.90;64.20;;;16.19;49.11;95398.97;5044857;28;20447;-61
2022/07/12 01:05:13;;;;;;;6.17;1.87;;;15.90;64.10;;;16.19;49.41;95391.84;5044956;28;20462;-61
2022/07/12 01:07:40;;;;;;;2.80;1.20;;;15.90;64.00;;;16.21;49.35;95391.69;5044833;28;20968;-63
2022/07/12 01:10:09;;;;;;;1.17;1.07;;;15.90;64.10;;;16.22;49.34;95403.94;5044436;28;20830;-61
2022/07/12 01:12:37;;;;;;;2.83;1.60;;;15.90;64.30;;;16.21;49.63;95389.03;5044140;28;20456;-62
2022/07/12 01:15:06;;;;;;;2.60;1.33;;;15.90;64.60;;;16.17;49.66;95399.13;5044846;28;20451;-62
2022/07/12 01:17:35;;;;;;;1.57;1.47;;;15.80;64.50;;;16.15;49.67;95401.13;5044306;28;20448;-61
2022/07/12 01:20:05;;;;;;;2.43;1.60;;;15.80;64.60;;;16.12;49.92;95398.78;5044189;28;20463;-62
2022/07/12 01:22:38;;;;;;;3.20;1.83;;;15.80;65.20;;;16.07;50.20;95404.56;5044848;28;20460;-61
2022/07/12 01:25:07;;;;;;;2.97;1.77;;;15.80;65.10;;;16.01;50.25;95401.75;5044840;28;20440;-57
2022/07/12 01:27:34;;;;;;;5.50;2.00;;;15.70;65.40;;;15.94;50.00;95394.41;5044461;28;20853;-58
2022/07/12 01:30:03;;;;;;;2.93;2.20;;;15.60;65.00;;;15.88;50.21;95391.56;5041116;28;20894;-59
2022/07/12 01:32:30;;;;;;;4.80;2.60;;;15.60;65.30;;;15.85;50.29;95397.19;5041593;28;20523;-58
2022/07/12 01:34:59;;;;;;;6.13;2.63;;;15.50;65.30;;;15.81;50.50;95401.16;5044691;28;20536;-58
2022/07/12 01:37:29;;;;;;;2.33;2.13;;;15.50;65.90;;;15.77;50.37;95393.53;5043941;28;20460;-61
2022/07/12 01:39:58;;;;;;;3.67;2.70;;;15.50;65.60;;;15.75;50.52;95390.19;5044206;28;20466;-61
2022/07/12 01:42:28;;;;;;;5.23;2.30;;;15.40;65.90;;;15.72;50.41;95387.84;5041228;28;20521;-62
2022/07/12 01:44:55;;;;;;;3.50;1.70;;;15.40;65.80;;;15.69;50.52;95390.81;5042295;28;20451;-57
2022/07/12 01:47:24;;;;;;;3.20;1.83;;;15.40;65.90;;;15.69;50.42;95397.91;5043857;28;20475;-61
2022/07/12 01:49:51;;;;;;;2.27;2.07;;;15.40;66.20;;;15.65;50.98;95392.09;5044498;28;20509;-57
2022/07/12 01:52:19;;;;;;;4.00;2.10;;;15.30;66.60;;;15.60;50.91;95394.41;5044409;28;21185;-61
2022/07/12 01:54:46;;;;;;;3.73;1.97;;;15.30;66.70;;;15.58;50.91;95391.91;5042128;28;20474;-58
2022/07/12 01:57:13;;;;;;;6.47;2.33;;;15.30;66.40;;;15.56;51.01;95382.44;5044981;28;20494;-61
2022/07/12 01:59:43;;;;;;;6.80;2.23;;;15.20;66.30;;;15.54;51.06;95390.56;5047690;28;20463;-58
2022/07/12 02:02:10;;;;;;;5.93;2.90;;;15.20;66.70;;;15.51;51.07;95388.22;5046392;28;20475;-63
2022/07/12 02:04:37;;;;;;;3.80;2.27;;;15.20;66.60;;;15.48;51.33;95385.06;5046999;28;20474;-62
2022/07/12 02:07:05;;;;;;;3.23;2.20;;;15.20;66.90;;;15.45;51.06;95385.38;5047085;28;21110;-58
2022/07/12 02:09:32;;;;;;;4.03;3.00;;;15.10;67.10;;;15.42;51.24;95387.34;5047264;28;20841;-62
2022/07/12 02:12:00;;;;;;;7.70;2.60;;;15.10;67.10;;;15.41;50.98;95387.50;5047191;28;21012;-61
2022/07/12 02:14:27;;;;;;;2.70;2.13;;;15.10;67.00;;;15.38;51.44;95383.34;5047449;28;20983;-61
2022/07/12 02:16:56;;;;;;;4.03;2.30;;;15.10;67.10;;;15.37;51.75;95392.28;5047268;28;21072;-57
2022/07/12 02:19:23;;;;;;;2.93;2.27;;;15.10;67.90;;;15.35;51.14;95393.41;5046976;28;20452;-61
2022/07/12 02:21:51;;;;;;;4.70;2.40;;;15.00;67.20;;;15.32;51.84;95396.38;5047204;28;20467;-58
2022/07/12 02:24:18;;;;;;;4.10;2.53;;;15.00;68.00;;;15.30;51.67;95399.19;5046989;28;20444;-57
2022/07/12 02:26:45;;;;;;;7.00;2.87;;;15.00;67.50;;;15.28;51.51;95395.88;5047076;28;20472;-57
2022/07/12 02:29:13;;;;;;;3.30;2.30;;;15.00;68.80;;;15.25;51.65;95398.84;5046860;28;20451;-63
2022/07/12 02:31:40;;;;;;;3.73;2.40;;;15.00;68.00;;;15.23;51.74;95403.47;5047331;28;20502;-61
2022/07/12 02:34:09;;;;;;;3.77;2.53;;;14.90;67.90;;;15.21;51.67;95400.97;5046981;28;20452;-60
2022/07/12 02:36:36;;;;;;;4.20;2.43;;;14.90;67.90;;;15.20;52.11;95393.19;5047002;28;20576;-57
2022/07/12 02:39:04;;;;;;;3.07;2.80;;;14.90;68.10;;;15.17;51.82;95393.50;5046014;28;20458;-56
2022/07/12 02:41:31;;;;;;;5.80;2.60;;;14.90;68.40;;;15.15;51.88;95401.59;5047358;28;20510;-61
2022/07/12 02:43:59;;;;;;;3.70;2.70;;;14.90;68.30;;;15.15;51.90;95392.78;5047342;28;20502;-57
2022/07/12 02:46:26;;;;;;;3.10;2.47;;;14.90;68.50;;;15.13;52.34;95398.25;5044433;28;20460;-57
2022/07/12 02:48:53;;;;;;;4.97;2.87;;;14.80;68.90;;;15.12;52.01;95398.41;5046726;28;20479;-62
2022/07/12 02:51:22;;;;;;;2.97;2.77;;;14.80;68.80;;;15.14;52.23;95409.69;5047214;28;20500;-60
2022/07/12 02:53:50;;;;;;;4.30;2.77;;;14.80;69.20;;;15.17;52.37;95399.59;5045690;28;20551;-58
2022/07/12 02:56:17;;;;;;;2.80;2.60;;;14.90;69.80;;;15.21;52.50;95410.72;5047337;28;20469;-61
2022/07/12 02:58:44;;;;;;;3.43;2.77;;;14.90;69.50;;;15.21;52.42;95410.72;5046956;28;20474;-57
2022/07/12 03:01:12;;;;;;;4.23;2.87;;;14.90;69.20;;;15.20;52.37;95399.28;5046717;28;20488;-61
2022/07/12 03:03:39;;;;;;;7.20;3.00;;;14.90;69.00;;;15.17;52.27;95398.78;5046504;28;20455;-63
2022/07/12 03:06:07;;;;;;;6.60;2.40;;;14.90;69.40;;;15.15;52.42;95406.03;5047011;28;20571;-57
2022/07/12 03:08:35;;;;;;;6.47;3.20;;;14.80;69.20;;;15.12;52.14;95406.34;5046347;28;21028;-58
2022/07/12 03:11:03;;;;;;;5.13;2.60;;;14.80;69.20;;;15.10;52.50;95406.50;5046636;28;20463;-57
2022/07/12 03:13:30;;;;;;;3.80;3.30;;;14.80;69.60;;;15.09;52.47;95419.91;5046632;28;20459;-61
2022/07/12 03:15:57;;;;;;;6.17;2.80;;;14.80;69.70;;;15.06;52.52;95413.94;5047069;28;20463;-60
2022/07/12 03:18:25;;;;;;;4.60;3.13;;;14.80;69.70;;;15.08;52.66;95420.91;5046392;28;20664;-61
2022/07/12 03:20:52;;;;;;;9.80;2.90;;;14.80;70.30;;;15.05;52.93;95420.22;5046366;28;20983;-62
2022/07/12 03:23:19;;;;;;;4.40;3.20;;;14.80;70.40;;;15.04;52.84;95415.91;5046408;28;20451;-61
2022/07/12 03:25:48;;;;;;;4.37;2.80;;;14.80;70.40;;;15.04;52.67;95426.50;5047035;28;20506;-58
2022/07/12 03:28:15;;;;;;;3.73;2.80;;;14.70;70.30;;;15.06;52.87;95427.19;5046275;28;20931;-62
2022/07/12 03:30:43;;;;;;;14.50;3.40;;;14.80;70.90;;;15.06;52.73;95424.53;5045278;28;20529;-62
2022/07/12 03:33:10;;;;;;;8.50;3.07;;;14.80;70.60;;;15.06;53.27;95424.53;5044653;28;20842;-62
2022/07/12 03:35:38;;;;;;;10.80;3.37;;;14.80;71.10;;;15.06;53.18;95423.72;5046230;28;20475;-62
2022/07/12 03:38:05;;;;;;;3.00;2.70;;;14.80;71.20;;;15.06;53.33;95424.53;5046111;28;20448;-62
2022/07/12 03:40:34;;;;;;;7.33;3.37;;;14.80;71.10;;;15.06;53.26;95421.06;5045875;28;21007;-61
2022/07/12 03:43:02;;;;;;;10.50;4.90;;;14.80;71.20;;;15.07;53.39;95425.34;5043449;28;20451;-61
2022/07/12 03:45:30;;;;;;;12.70;4.40;;;14.80;71.40;;;15.09;53.11;95428.69;5044899;28;20537;-60
2022/07/12 03:47:57;;;;;;;5.20;3.80;;;14.80;71.50;;;15.10;53.22;95430.34;5043925;28;20578;-60
2022/07/12 03:50:24;;;;;;;4.80;3.40;;;14.80;71.70;;;15.12;53.49;95432.84;5045839;28;20472;-58
2022/07/12 03:52:52;;;;;;;7.70;3.53;;;14.80;71.60;;;15.15;53.37;95443.13;5046234;28;20629;-58
2022/07/12 03:55:19;;;;;;;19.80;4.47;;;14.80;71.80;;;15.15;53.46;95437.84;5045092;28;20494;-57
2022/07/12 03:57:46;;;;;;;9.73;4.23;;;14.90;72.20;;;15.15;53.35;95438.69;5045532;28;20494;-57
2022/07/12 04:00:16;;;;;;;8.97;4.50;;;14.90;72.20;;;15.17;53.55;95442.00;5043904;28;20437;-61
2022/07/12 04:02:43;;;;;;;20.77;3.80;;;14.90;72.30;;;15.15;53.41;95443.13;5044758;28;20448;-58
2022/07/12 04:05:11;;;;;;;12.13;3.57;;;14.90;72.20;;;15.13;53.52;95439.81;5045398;28;21019;-57
2022/07/12 04:07:38;;;;;;;3.27;2.77;;;14.90;72.10;;;15.10;53.57;95446.25;5045428;28;20964;-58
2022/07/12 04:10:07;;;;;;;6.50;2.57;;;14.80;72.90;;;15.09;53.52;95443.75;5045798;28;20452;-58
2022/07/12 04:12:35;;;;;;;3.30;3.00;;;14.80;72.20;;;15.09;53.78;95449.03;5045553;28;20492;-61
2022/07/12 04:15:02;;;;;;;12.33;2.77;;;14.80;72.60;;;15.12;53.89;95457.53;5045356;28;20460;-60
2022/07/12 04:17:31;;;;;;;5.57;2.90;;;14.80;72.80;;;15.16;53.70;95455.41;5044417;28;20444;-64
2022/07/12 04:19:59;;;;;;;13.13;3.23;;;14.80;72.70;;;15.20;53.81;95462.06;5044315;28;20824;-62
2022/07/12 04:22:26;;;;;;;8.10;3.77;;;14.90;73.20;;;15.23;53.76;95462.59;5042646;28;20454;-59
2022/07/12 04:24:53;;;;;;;3.73;2.67;;;14.90;73.00;;;15.29;53.66;95466.44;5045063;28;20456;-61
2022/07/12 04:27:21;;;;;;;14.07;4.60;;;15.00;73.00;;;15.34;53.83;95471.28;5045054;28;20479;-62
2022/07/12 04:29:48;;;;;;;7.30;3.60;;;15.00;73.20;;;15.37;53.88;95463.03;5044912;28;20897;-61
2022/07/12 04:32:16;;;;;;;5.40;3.57;;;15.10;73.30;;;15.44;53.57;95472.00;5044032;28;20555;-62
2022/07/12 04:34:44;;;;;;;10.73;3.70;;;15.10;73.10;;;15.48;53.80;95464.59;5044173;28;20484;-59
2022/07/12 04:37:12;;;;;;;15.83;2.77;;;15.20;73.50;;;15.54;53.57;95467.44;5042627;28;20705;-63
2022/07/12 04:39:39;;;;;;;8.93;4.17;;;15.20;73.10;;;15.59;53.28;95473.09;5044828;28;20471;-58
2022/07/12 04:42:06;;;;;;;3.80;3.40;;;15.30;72.90;;;15.65;53.45;95476.97;5044762;28;21031;-63
2022/07/12 04:44:34;;;;;;;5.57;2.97;;;15.30;72.90;;;15.71;53.24;95478.16;5044386;28;20527;-62
2022/07/12 04:47:01;;;;;;;6.63;3.23;;;15.40;72.80;;;15.76;53.25;95474.03;5041713;28;20987;-63
2022/07/12 04:49:28;;;;;;;3.50;3.20;;;15.40;72.90;;;15.83;53.30;95476.91;5043758;28;20471;-60
2022/07/12 04:51:57;;;;;;;7.43;3.00;;;15.50;72.90;;;15.90;53.36;95477.13;5044862;28;20518;-61
2022/07/12 04:54:24;;;;;;;5.13;3.73;;;15.60;73.00;;;15.95;53.37;95477.50;5044785;28;20460;-58
2022/07/12 04:56:52;;;;;;;4.20;3.67;;;15.60;73.00;;;15.99;53.42;95470.88;5044832;28;20467;-61
2022/07/12 04:59:19;;;;;;;3.80;2.70;;;15.70;73.20;;;16.06;53.37;95479.03;5045002;28;20474;-61
2022/07/12 05:01:46;;;;;;;11.50;3.70;;;15.70;73.10;;;16.11;53.47;95472.28;5043756;28;20476;-59
2022/07/12 05:04:14;;;;;;;4.30;3.00;;;15.80;73.70;;;16.16;53.10;95473.59;5044426;28;20452;-58
2022/07/12 05:06:41;;;;;;;10.20;3.43;;;15.80;73.20;;;16.20;53.36;95472.28;5044608;28;20483;-61
2022/07/12 05:09:10;;;;;;;6.27;3.00;;;15.90;74.20;;;16.24;53.22;95476.31;5041203;28;20452;-61
2022/07/12 05:11:37;;;;;;;7.20;3.57;;;15.90;73.30;;;16.32;53.44;95478.97;5044112;28;20504;-63
2022/07/12 05:14:05;;;;;;;11.50;3.67;;;16.00;74.00;;;16.39;53.56;95485.31;5042246;28;20834;-62
2022/07/12 05:16:33;;;;;;;4.70;3.47;;;16.00;74.40;;;16.48;53.45;95484.34;5038948;28;20476;-56
2022/07/12 05:19:02;;;;;;;4.57;2.90;;;16.10;74.00;;;16.61;53.53;95478.56;5037745;28;20463;-58
2022/07/12 05:21:29;;;;;;;4.97;3.43;;;16.20;74.30;;;16.76;53.86;95464.66;5039973;28;20471;-62
2022/07/12 05:23:56;;;;;;;6.60;3.70;;;16.40;75.10;;;16.90;53.05;95473.84;5035662;28;20490;-62
2022/07/12 05:26:25;;;;;;;10.93;4.30;;;16.50;74.50;;;17.05;53.25;95477.50;5038142;28;20483;-61
2022/07/12 05:28:52;;;;;;;12.20;4.23;;;16.60;74.30;;;17.22;52.85;95472.22;5037540;28;20455;-61
2022/07/12 05:31:20;;;;;;;8.40;3.90;;;16.80;74.30;;;17.41;52.85;95479.84;5042088;28;20480;-57
2022/07/12 05:33:47;;;;;;;11.77;4.23;;;16.90;74.20;;;17.63;52.40;95477.50;5041107;28;20544;-61
2022/07/12 05:36:14;;;;;;;4.13;3.03;;;17.10;73.70;;;17.82;52.67;95479.78;5038434;28;20585;-63
2022/07/12 05:38:42;;;;;;;11.67;3.83;;;17.30;74.00;;;18.06;52.14;95476.28;5041869;28;20829;-60
2022/07/12 05:41:09;;;;;;;6.17;3.80;;;17.60;73.80;;;18.32;51.67;95474.34;5039055;28;20486;-62
2022/07/12 05:43:38;;;;;;;12.23;4.63;;;17.80;73.10;;;18.54;51.04;95470.09;5041515;28;20495;-59
2022/07/12 05:46:05;;;;;;;7.73;3.67;;;18.00;72.10;;;18.75;51.00;95475.63;5040023;28;20463;-62
2022/07/12 05:48:33;;;;;;;7.57;3.90;;;18.20;71.70;;;18.99;50.86;95472.03;5040779;28;20459;-62
2022/07/12 05:53:21;;;;;;;5.03;3.50;;;18.40;71.60;;;19.23;50.09;95466.69;5039610;28;21121;-58
2022/07/12 05:53:47;;;;;;;7.23;3.20;;;18.70;71.20;;;19.47;49.60;95462.97;5041950;28;20542;-62
2022/07/12 05:56:14;;;;;;;6.40;3.67;;;18.90;70.30;;;19.68;49.13;95468.44;5043333;28;20549;-57
2022/07/12 05:58:43;;;;;;;8.23;3.53;;;19.10;69.80;;;19.87;49.55;95466.28;5038762;28;21050;-63
2022/07/12 06:01:10;;;;;;;6.33;3.90;;;19.30;69.50;;;20.06;48.93;95473.75;5036018;28;20463;-63
2022/07/12 06:03:38;;;;;;;7.90;2.97;;;19.50;68.60;;;20.25;48.14;95474.22;5039699;28;20452;-62
2022/07/12 06:06:05;;;;;;;4.70;2.87;;;19.70;68.00;;;20.43;47.70;95463.13;5043247;28;20476;-57
2022/07/12 06:08:33;;;;;;;8.63;2.80;;;19.80;67.20;;;20.64;47.89;95467.72;5040514;28;20486;-58
2022/07/12 06:11:00;;;;;;;4.83;2.77;;;20.00;66.70;;;20.86;47.09;95470.47;5039640;28;20866;-60
2022/07/12 06:13:27;;;;;;;10.23;3.40;;;20.30;66.00;;;21.11;46.72;95458.34;5041464;28;20492;-56
2022/07/12 06:15:57;;;;;;;7.77;3.77;;;20.50;65.90;;;21.36;46.63;95470.53;5037910;28;20466;-60
2022/07/12 06:18:24;;;;;;;5.83;3.20;;;20.70;65.30;;;21.53;45.86;95461.22;5036839;28;20453;-60
2022/07/12 06:20:52;;;;;;;7.53;2.40;;;20.90;64.30;;;21.71;44.86;95458.09;5035252;28;20468;-58
2022/07/12 06:23:19;;;;;;;2.70;2.50;;;21.10;62.90;;;21.93;45.04;95461.53;5037698;28;20456;-58
2022/07/12 06:25:46;;;;;;;7.13;1.80;;;21.20;63.10;;;22.15;44.65;95458.78;5037826;28;20475;-59
2022/07/12 06:28:14;;;;;;;2.70;1.67;;;21.50;62.40;;;22.38;44.17;95459.34;5037741;28;21039;-60
2022/07/12 06:30:41;;;;;;;4.83;2.20;;;21.70;61.80;;;22.58;43.60;95460.47;5031745;28;20479;-59
2022/07/12 06:33:10;;;;;;;5.23;1.57;;;21.90;60.20;;;22.76;43.64;95460.75;5030942;28;20772;-61
2022/07/12 06:35:37;;;;;;;3.20;1.90;;;22.10;60.10;;;22.99;42.96;95456.88;5032533;28;21893;-60
2022/07/12 06:38:05;;;;;;;9.60;1.20;;;22.30;60.00;;;23.18;42.75;95457.97;5036584;28;21127;-59
2022/07/12 06:40:32;;;;;;;2.70;1.10;;;22.50;59.00;;;23.36;40.52;95454.69;5037574;28;20988;-60
2022/07/12 06:42:59;;;;;;;11.03;1.50;;;22.70;56.80;;;23.46;40.56;95455.13;5036295;28;21043;-59
2022/07/12 06:45:27;;;;;;;2.30;1.23;;;22.80;56.60;;;23.60;40.78;95453.25;5037464;28;20805;-59
2022/07/12 06:47:54;;;;;;;2.50;1.03;;;23.00;56.50;;;23.77;39.37;95453.66;5032207;28;20496;-59
2022/07/12 06:50:23;;;;;;;4.50;1.30;;;23.10;55.70;;;23.91;40.17;95452.63;5039799;28;20730;-59
2022/07/12 06:52:50;;;;;;;11.60;1.20;;;23.20;55.60;;;24.05;38.93;95447.25;5040513;28;20499;-59
2022/07/12 06:55:18;;;;;;;2.60;1.00;;;23.40;54.30;;;24.19;39.13;95459.63;5038234;28;20455;-58
2022/07/12 06:57:45;;;;;;;1.13;1.03;;;23.50;54.70;;;24.34;39.12;95446.75;5038092;28;20459;-61
2022/07/12 07:00:13;;;;;;;4.43;0.90;;;23.70;54.60;;;24.51;38.32;95452.50;5041351;28;20459;-59
2022/07/12 07:02:41;;;;;;;2.90;1.63;;;23.80;54.00;;;24.69;39.07;95451.00;5035778;28;20455;-61
2022/07/12 07:05:10;;;;;;;6.30;1.07;;;24.00;54.60;;;24.90;38.67;95449.03;5038362;28;20546;-59
2022/07/12 07:07:39;;;;;;;2.00;1.63;;;24.20;54.30;;;25.08;37.66;95446.44;5037642;28;20948;-60
2022/07/12 07:10:08;;;;;;;1.37;1.23;;;24.40;53.20;;;25.25;38.40;95449.44;5038785;28;20543;-60
2022/07/12 07:12:35;;;;;;;2.07;1.37;;;24.50;53.90;;;25.43;37.75;95442.53;5036920;28;20585;-58
2022/07/12 07:15:03;;;;;;;2.60;1.20;;;24.70;53.00;;;25.59;38.23;95445.50;5039275;28;20472;-60
2022/07/12 07:17:30;;;;;;;4.50;1.33;;;24.90;53.20;;;25.74;37.88;95445.16;5036995;28;20944;-60
2022/07/12 07:19:57;;;;;;;4.17;1.03;;;25.00;52.70;;;25.95;34.98;95441.22;5038520;28;20462;-60
2022/07/12 07:22:25;;;;;;;5.43;1.17;;;25.20;49.90;;;26.08;36.36;95443.00;5035834;28;20452;-60
2022/07/12 07:24:54;;;;;;;7.13;1.00;;;25.40;50.70;;;26.18;36.05;95447.03;5034901;28;20802;-60
2022/07/12 07:27:22;;;;;;;1.50;1.03;;;25.50;50.70;;;26.26;36.02;95447.59;5037936;28;20594;-61
2022/07/12 07:32:34;;;;;;;3.30;1.60;;;25.70;49.30;;;26.56;35.51;95446.00;5038730;28;21062;-61
2022/07/12 07:35:01;;;;;;;5.20;1.87;;;25.80;50.10;;;26.63;35.48;95435.94;5034368;28;20456;-61
2022/07/12 07:37:29;;;;;;;1.50;1.33;;;25.90;49.80;;;26.70;35.16;95430.50;5031076;28;20456;-60
2022/07/12 07:39:58;;;;;;;1.77;1.00;;;26.00;49.70;;;26.83;34.96;95436.56;5038402;28;20485;-61
2022/07/12 07:42:25;;;;;;;3.30;0.90;;;26.10;48.80;;;26.98;34.76;95433.44;5036693;28;20451;-60
2022/07/12 07:44:52;;;;;;;6.93;1.30;;;26.20;48.40;;;27.14;33.59;95437.38;5038165;28;20448;-58
2022/07/12 07:47:20;;;;;;;3.23;1.20;;;26.40;46.90;;;27.28;34.12;95426.38;5034806;28;20487;-59
2022/07/12 07:49:47;;;;;;;9.80;1.47;;;26.50;47.80;;;27.41;34.08;95444.28;5037831;28;20451;-61
2022/07/12 07:52:14;;;;;;;5.53;1.20;;;26.70;48.10;;;27.45;34.01;95430.09;5037672;28;20475;-60
2022/07/12 07:54:42;;;;;;;3.87;1.60;;;26.70;47.60;;;27.55;33.80;95433.03;5037211;28;20498;-59
2022/07/12 07:57:10;;;;;;;2.57;1.23;;;26.80;47.70;;;27.70;33.51;95432.59;5037398;28;20483;-59
2022/07/12 07:59:38;;;;;;;6.03;1.20;;;26.90;47.00;;;27.87;33.50;95430.00;5040549;28;20760;-59
2022/07/12 08:02:05;;;;;;;3.43;1.13;;;27.10;46.70;;;27.97;32.43;95429.44;5036664;28;20475;-60
2022/07/12 08:04:33;;;;;;;4.83;1.63;;;27.20;45.80;;;27.94;31.81;95434.47;5035400;28;20934;-61
2022/07/12 08:07:00;;;;;;;3.97;1.10;;;27.20;44.60;;;27.99;32.54;95429.22;5036047;28;20501;-59
2022/07/12 08:09:27;;;;;;;7.77;1.03;;;27.30;45.70;;;28.15;32.42;95430.38;5038332;28;20464;-58
2022/07/12 08:11:55;;;;;;;7.50;1.47;;;27.40;45.40;;;28.33;32.03;95424.00;5035160;28;20467;-60
2022/07/12 08:14:24;;;;;;;3.77;1.40;;;27.60;45.50;;;28.50;31.70;95422.19;5039005;28;20487;-62
2022/07/12 08:16:51;;;;;;;1.87;1.67;;;27.70;44.10;;;28.49;30.37;95415.16;5034193;28;20861;-58
2022/07/12 08:19:18;;;;;;;2.50;1.10;;;27.80;42.00;;;28.48;31.47;95421.63;5037630;28;20470;-60
2022/07/12 08:21:45;;;;;;;12.57;1.40;;;27.80;43.20;;;28.60;31.36;95414.31;5038623;28;20471;-61
2022/07/12 08:24:13;;;;;;;3.43;1.37;;;27.90;44.50;;;28.80;31.63;95415.81;5036264;28;20994;-59
2022/07/12 08:26:40;;;;;;;7.50;1.23;;;28.10;44.90;;;29.02;31.26;95418.66;5036224;28;20515;-58
2022/07/12 08:29:08;;;;;;;6.83;1.63;;;28.30;44.40;;;29.20;31.90;95414.91;5036321;28;20479;-59
2022/07/12 08:31:37;;;;;;;6.03;1.20;;;28.40;44.10;;;29.37;30.96;95406.00;5034155;28;20468;-61
2022/07/12 08:34:04;;;;;;;3.17;1.03;;;28.60;43.70;;;29.41;30.63;95405.25;5033122;28;20528;-60
2022/07/12 08:36:31;;;;;;;2.30;0.90;;;28.70;43.60;;;29.53;31.20;95407.91;5039066;28;21184;-61
2022/07/12 08:38:59;;;;;;;2.70;0.87;;;28.80;43.70;;;29.65;30.75;95408.66;5038173;28;20503;-60
2022/07/12 08:41:26;;;;;;;3.90;1.07;;;29.00;42.80;;;29.52;30.78;95408.97;5036979;28;20477;-61
2022/07/12 08:43:54;;;;;;;3.90;1.13;;;28.90;42.30;;;29.39;30.89;95407.41;5035071;28;20447;-60
2022/07/12 08:46:21;;;;;;;3.80;1.00;;;28.80;42.70;;;29.48;30.91;95411.34;5035938;28;20506;-60
2022/07/12 08:48:50;;;;;;;9.90;1.40;;;28.80;42.40;;;29.60;29.96;95399.59;5036627;28;20448;-61
2022/07/12 08:51:20;;;;;;;5.80;1.17;;;28.90;43.10;;;29.75;29.96;95396.31;5039575;28;20835;-59
2022/07/12 08:53:49;;;;;;;3.30;1.20;;;29.00;42.50;;;29.92;30.06;95389.00;5035728;28;20476;-60
2022/07/12 08:56:31;;;;;;;8.27;1.00;;;29.20;41.90;;;30.13;28.66;95390.13;5037308;28;20490;-61
2022/07/12 08:59:11;;;;;;;3.00;1.00;;;29.40;40.80;;;30.38;28.36;95395.06;5029975;28;20451;-60
2022/07/12 09:01:47;;;;;;;3.73;1.47;;;29.60;40.80;;;30.60;28.24;95388.00;5035428;28;20474;-60
2022/07/12 09:04:17;;;;;;;3.93;1.10;;;29.80;40.40;;;30.79;28.52;95383.88;5046454;28;20546;-61
2022/07/12 09:06:45;;;;;;;1.10;0.90;;;30.00;40.10;;;30.97;27.57;95390.03;5048009;28;20221;-60
2022/07/12 09:09:12;;;;;;;3.67;0.80;;;30.20;38.80;;;30.88;28.28;95389.69;5049081;28;20196;-59
2022/07/12 09:11:40;;;;;;;1.10;0.83;;;30.30;39.60;;;30.82;27.81;95391.53;5045016;28;20346;-60
2022/07/12 09:14:08;;;;;;;3.50;0.90;;;30.20;39.10;;;30.86;26.82;95391.81;5048957;28;20822;-60
2022/07/12 09:16:35;;;;;;;5.23;1.73;;;30.10;37.80;;;30.69;26.29;95381.88;5047915;28;20506;-59
2022/07/12 09:19:19;;;;;;;1.10;0.90;;;30.10;35.90;;;30.51;26.70;95385.72;5047840;28;20825;-57
2022/07/12 09:21:51;;;;;;;1.13;0.80;;;29.90;37.60;;;30.46;25.56;95384.84;5048750;28;20290;-61
2022/07/12 09:24:18;;;;;;;3.17;1.23;;;29.80;36.50;;;30.41;27.35;95382.06;5048450;28;20254;-57
2022/07/12 09:26:46;;;;;;;1.40;1.00;;;29.80;37.80;;;30.44;27.85;95373.44;5047657;28;20231;-60
2022/07/12 09:29:14;;;;;;;5.17;1.60;;;29.80;38.00;;;30.55;27.49;95378.72;5047706;28;20316;-61
2022/07/12 09:36:06;;;;;;;1.00;0.90;;;29.80;38.10;;;30.50;27.18;95378.66;5044164;28;20224;-61
2022/07/12 09:37:16;;;;;;;1395.10;884.77;;;29.70;37.60;;;30.05;27.00;95382.38;5048003;28;20239;-60
2022/07/12 09:39:44;;;;;;;570.87;367.10;;;29.50;37.70;;;30.04;27.28;95370.72;5047442;28;20447;-61
2022/07/12 09:42:12;;;;;;;111.17;36.17;;;29.40;37.90;;;30.10;27.70;95363.50;5047980;28;20294;-60
2022/07/12 09:44:39;;;;;;;16.43;8.40;;;29.40;37.70;;;30.19;27.09;95363.84;5048520;28;20470;-59
2022/07/12 09:47:12;;;;;;;96.90;50.50;;;29.50;37.70;;;30.36;27.59;95364.59;5047852;28;20525;-60
2022/07/12 09:49:40;;;;;;;16.97;7.30;;;29.60;37.70;;;30.50;27.27;95377.84;5047432;28;20451;-60
2022/07/12 09:52:11;;;;;;;4.13;3.23;;;29.70;37.20;;;30.62;26.74;95369.56;5046862;28;20754;-61
2022/07/12 09:54:41;;;;;;;42.63;19.87;;;29.90;37.00;;;30.74;26.35;95370.25;5047331;28;20303;-61
2022/07/12 09:57:14;;;;;;;13.30;5.03;;;30.00;36.90;;;30.90;26.13;95373.94;5048298;28;20225;-59
2022/07/12 09:59:42;;;;;;;2.53;1.13;;;30.10;36.10;;;31.04;25.63;95367.03;5048128;28;20209;-60
2022/07/12 10:02:14;;;;;;;3.23;1.57;;;30.30;35.80;;;31.16;25.41;95366.91;5046693;28;20640;-61
2022/07/12 10:04:43;;;;;;;24.73;7.23;;;30.40;35.20;;;31.21;25.67;95364.22;5045794;28;20241;-59
2022/07/12 10:07:13;;;;;;;18.07;7.60;;;30.50;35.10;;;31.16;25.54;95371.53;5047801;28;20225;-61
2022/07/12 10:09:40;;;;;;;2.60;0.90;;;30.50;35.20;;;31.13;25.91;95364.69;5047236;28;20201;-60
2022/07/12 10:12:08;;;;;;;7.93;1.83;;;30.50;35.10;;;31.06;24.86;95364.91;5047643;28;20239;-60
2022/07/12 10:14:35;;;;;;;4.40;1.50;;;30.40;34.50;;;30.96;25.66;95362.06;5047404;28;20239;-60
2022/07/12 10:17:03;;;;;;;2.40;0.80;;;30.40;35.00;;;30.88;25.60;95365.25;5046704;28;20715;-61
2022/07/12 10:19:32;;;;;;;1.40;0.93;;;30.30;34.70;;;30.69;25.14;95365.59;5047514;28;20231;-58
2022/07/12 10:22:02;;;;;;;2.23;0.93;;;30.10;34.30;;;30.47;25.00;95357.44;5048033;28;20223;-61
2022/07/12 10:24:54;;;;;;;6.23;2.00;;;29.90;34.10;;;30.28;25.61;95354.22;5047895;28;20375;-60
2022/07/12 10:27:30;;;;;;;1.17;0.90;;;29.70;35.20;;;30.26;24.66;95356.34;5046626;28;20221;-61